Time;durP1;ratioP1;P1;durP2;ratioP2;P2;SDS_P1;SDS_P2;PMS_P1;PMS_P2;Temp;Humidity;BMP_temperature;BMP_pressure;BME280_temperature;BME280_humidity;BME280_pressure;Samples;Min_cycle;Max_cycle;Signal;HPM_P1;HPM_P2
2022/07/14 00:01:15;;;;;;;4.38;0.90;;;;;;;18.07;81.09;101237.09;5007718;28;20172;-67
2022/07/14 00:03:40;;;;;;;2.10;0.55;;;;;;;18.22;80.34;101224.97;5009922;28;20037;-67
2022/07/14 00:06:06;;;;;;;6.22;0.98;;;;;;;18.10;80.54;101225.41;5010613;28;20064;-67
2022/07/14 00:08:31;;;;;;;2.38;0.68;;;;;;;17.96;81.39;101226.97;5008681;28;20083;-67
2022/07/14 00:10:57;;;;;;;3.50;0.70;;;;;;;17.83;81.79;101231.25;5007782;28;20041;-67
2022/07/14 00:13:22;;;;;;;1.92;0.65;;;;;;;17.71;82.24;101228.91;5009896;28;20041;-67
2022/07/14 00:15:48;;;;;;;4.97;0.70;;;;;;;17.66;83.20;101226.56;5010281;28;20021;-67
2022/07/14 00:18:14;;;;;;;7.97;1.13;;;;;;;17.79;83.14;101225.03;5009094;28;20120;-67
2022/07/14 00:20:39;;;;;;;3.80;0.60;;;;;;;17.77;82.62;101229.28;5009687;28;20069;-67
2022/07/14 00:23:05;;;;;;;8.18;1.05;;;;;;;17.68;83.08;101229.69;5007662;28;20433;-67
2022/07/14 00:25:30;;;;;;;3.08;0.82;;;;;;;17.71;83.63;101234.34;5009247;28;20367;-67
2022/07/14 00:27:56;;;;;;;1.98;0.60;;;;;;;17.75;83.52;101229.69;5009536;28;20479;-67
2022/07/14 00:30:22;;;;;;;2.38;1.40;;;;;;;17.42;83.71;101224.56;5009999;28;20041;-67
2022/07/14 00:32:48;;;;;;;5.57;0.70;;;;;;;17.53;84.62;101224.63;5010115;28;20420;-67
2022/07/14 00:35:15;;;;;;;2.50;0.70;;;;;;;17.59;84.03;101226.59;4993395;28;20125;-67
2022/07/14 00:37:40;;;;;;;2.33;0.80;;;;;;;17.48;84.49;101223.03;5013632;28;20577;-67
2022/07/14 00:40:07;;;;;;;5.38;0.80;;;;;;;17.38;84.81;101221.06;4985714;28;20117;-67
2022/07/14 00:42:45;;;;;;;4.90;0.70;;;;;;;17.48;84.96;101223.03;4993373;28;20029;-67
2022/07/14 00:45:13;;;;;;;7.30;0.90;;;;;;;17.61;84.08;101231.63;4996475;28;20041;-67
2022/07/14 00:47:39;;;;;;;5.00;0.70;;;;;;;17.25;85.41;101228.03;5006711;28;20038;-68
2022/07/14 00:50:07;;;;;;;3.30;1.10;;;;;;;17.28;85.26;101219.09;4995772;28;20034;-67
2022/07/14 00:52:34;;;;;;;2.95;0.77;;;;;;;17.32;84.37;101224.56;4989794;28;20034;-67
2022/07/14 00:54:59;;;;;;;7.05;0.73;;;;;;;17.24;85.88;101226.50;5014181;28;20030;-67
2022/07/14 00:57:25;;;;;;;4.25;0.73;;;;;;;17.02;86.63;101214.75;4991375;28;20036;-67
2022/07/14 00:59:52;;;;;;;3.80;0.60;;;;;;;17.16;86.12;101219.47;4993094;28;20387;-67
2022/07/14 01:02:19;;;;;;;4.40;0.80;;;;;;;17.21;85.73;101223.75;5012816;28;20044;-67
2022/07/14 01:04:48;;;;;;;4.45;0.80;;;;;;;17.09;86.39;101227.63;5012869;28;20429;-67
2022/07/14 01:07:16;;;;;;;3.20;0.70;;;;;;;17.01;86.69;101218.63;4991993;28;20029;-67
2022/07/14 01:09:42;;;;;;;3.53;0.98;;;;;;;16.95;87.45;101220.19;4993792;28;20224;-67
2022/07/14 01:12:09;;;;;;;4.18;0.60;;;;;;;16.96;87.15;101227.19;5012225;28;20033;-67
2022/07/14 01:14:36;;;;;;;4.20;0.95;;;;;;;17.09;86.84;101231.09;5012194;28;20088;-67
2022/07/14 01:17:02;;;;;;;0.88;0.70;;;;;;;16.93;86.73;101219.00;5008566;28;20442;-67
2022/07/14 01:19:28;;;;;;;3.17;0.85;;;;;;;17.08;86.32;101215.94;5010798;28;20038;-67
2022/07/14 01:21:55;;;;;;;6.95;1.13;;;;;;;16.88;87.47;101219.34;4994701;28;20152;-67
2022/07/14 01:24:24;;;;;;;3.33;1.20;;;;;;;16.76;87.79;101215.03;4997807;28;20547;-67
2022/07/14 01:26:51;;;;;;;2.92;0.73;;;;;;;16.80;87.84;101213.13;5004017;28;20032;-67
2022/07/14 01:29:18;;;;;;;2.78;0.70;;;;;;;16.72;88.23;101214.28;4990832;28;20026;-67
2022/07/14 01:31:45;;;;;;;1.23;0.60;;;;;;;16.80;87.61;101210.38;5009539;28;20037;-67
2022/07/14 01:34:11;;;;;;;4.57;0.60;;;;;;;16.74;87.71;101213.88;4988180;28;20505;-67
2022/07/14 01:36:38;;;;;;;4.40;0.68;;;;;;;16.65;88.41;101202.56;5009730;28;20033;-67
2022/07/14 01:39:05;;;;;;;2.33;0.40;;;;;;;16.59;88.22;101198.66;4986185;28;20383;-67
2022/07/14 01:41:32;;;;;;;2.65;0.60;;;;;;;16.63;88.46;101200.22;4997848;28;20026;-67
2022/07/14 01:43:57;;;;;;;5.00;0.70;;;;;;;16.61;88.44;101199.03;5009435;28;20040;-67
2022/07/14 01:46:23;;;;;;;2.13;0.73;;;;;;;16.73;87.68;101193.25;5010060;28;20486;-67
2022/07/14 01:48:49;;;;;;;4.70;0.82;;;;;;;16.58;87.65;101202.53;4991352;28;20033;-67
2022/07/14 01:51:15;;;;;;;2.63;0.55;;;;;;;16.34;89.05;101200.44;4994589;28;20474;-67
2022/07/14 01:53:43;;;;;;;1.13;0.47;;;;;;;16.71;87.30;101203.75;5012184;28;20062;-67
2022/07/14 01:56:11;;;;;;;0.85;0.38;;;;;;;16.78;86.74;101206.50;4982617;28;20205;-67
2022/07/14 01:58:37;;;;;;;4.90;0.70;;;;;;;16.86;86.90;101213.53;4991305;28;20076;-67
2022/07/14 02:01:39;;;;;;;2.95;0.52;;;;;;;16.57;87.77;101209.16;4992631;28;20456;-67
2022/07/14 02:04:05;;;;;;;3.55;1.85;;;;;;;16.32;89.12;101210.91;4935626;29;20047;-67
2022/07/14 02:06:31;;;;;;;3.08;0.40;;;;;;;16.35;89.46;101202.78;4948458;28;20027;-67
2022/07/14 02:08:57;;;;;;;1.13;0.70;;;;;;;16.37;88.80;101203.19;4938996;29;20044;-67
2022/07/14 02:14:08;;;;;;;1.40;0.55;;;;;;;16.38;89.14;101201.22;4951401;29;20039;-67
2022/07/14 02:16:34;;;;;;;2.00;0.63;;;;;;;16.28;89.25;101197.28;4943453;28;20449;-67
2022/07/14 02:19:00;;;;;;;6.38;0.90;;;;;;;16.22;90.05;101194.16;4934116;29;20365;-67
2022/07/14 02:21:27;;;;;;;3.42;0.95;;;;;;;16.17;89.62;101194.50;4935475;29;20058;-67
2022/07/14 02:23:54;;;;;;;3.03;0.65;;;;;;;16.32;89.55;101202.75;4940741;29;20045;-67
2022/07/14 02:26:20;;;;;;;6.38;1.02;;;;;;;16.28;89.20;101203.50;4948257;28;20027;-67
2022/07/14 02:28:46;;;;;;;1.70;0.50;;;;;;;16.16;90.06;101203.81;4933248;29;20043;-67
2022/07/14 02:31:11;;;;;;;1.90;0.98;;;;;;;16.33;89.41;101202.38;4945186;29;20570;-67
2022/07/14 02:33:37;;;;;;;3.55;0.70;;;;;;;16.35;88.74;101202.78;4948107;28;20149;-66
2022/07/14 02:36:04;;;;;;;1.20;0.50;;;;;;;16.35;88.75;101216.38;4951413;28;20035;-67
2022/07/14 02:38:31;;;;;;;3.22;0.65;;;;;;;16.39;88.83;101224.53;4950378;29;20039;-67
2022/07/14 02:40:57;;;;;;;2.42;0.65;;;;;;;16.34;89.35;101220.22;4982062;28;20058;-67
2022/07/14 02:43:23;;;;;;;1.10;0.47;;;;;;;16.23;89.08;101217.47;4985152;28;20029;-67
2022/07/14 02:45:49;;;;;;;2.53;0.75;;;;;;;15.96;90.49;101205.25;4993086;28;20084;-67
2022/07/14 02:48:16;;;;;;;3.20;0.60;;;;;;;16.05;90.68;101215.78;5010835;28;20152;-67
2022/07/14 02:50:41;;;;;;;3.70;0.60;;;;;;;15.96;90.68;101210.69;4986623;28;20041;-67
2022/07/14 02:53:08;;;;;;;5.05;0.57;;;;;;;16.14;89.89;101216.25;4992899;28;20436;-67
2022/07/14 02:55:37;;;;;;;2.75;0.52;;;;;;;16.21;90.17;101208.91;4994069;28;20368;-67
2022/07/14 02:58:06;;;;;;;1.45;0.63;;;;;;;15.74;91.43;101208.16;4978855;28;20084;-67
2022/07/14 03:00:32;;;;;;;0.63;0.47;;;;;;;15.89;91.45;101198.97;5010494;28;20195;-67
2022/07/14 03:03:01;;;;;;;1.08;0.50;;;;;;;16.11;90.30;101206.09;4994159;28;20131;-67
2022/07/14 03:05:27;;;;;;;2.72;0.60;;;;;;;16.12;90.11;101208.44;4993966;28;20057;-67
2022/07/14 03:07:53;;;;;;;3.85;0.60;;;;;;;15.93;91.07;101205.97;4989297;28;20410;-67
2022/07/14 03:10:20;;;;;;;2.28;0.50;;;;;;;15.63;92.92;101212.72;4992473;28;20034;-67
2022/07/14 03:12:46;;;;;;;1.65;0.68;;;;;;;15.61;92.77;101215.81;5010528;28;20040;-67
2022/07/14 03:15:11;;;;;;;0.40;0.40;;;;;;;15.91;91.41;101218.41;5001074;28;20526;-68
2022/07/14 03:17:38;;;;;;;2.15;0.77;;;;;;;15.58;92.82;101211.13;5007411;28;20103;-67
2022/07/14 03:20:07;;;;;;;3.72;1.27;;;;;;;15.63;92.38;101204.56;4992680;28;20026;-67
2022/07/14 03:22:33;;;;;;;1.17;0.63;;;;;;;15.82;91.98;101198.91;4993734;28;20065;-67
2022/07/14 03:25:08;;;;;;;;;;;;;;;15.55;92.86;101201.03;4988913;28;20490;-66
2022/07/14 03:27:35;;;;;;;1.00;0.65;;;;;;;15.81;92.26;101203.59;4991137;28;19956;-67
2022/07/14 03:30:03;;;;;;;2.88;0.60;;;;;;;15.74;92.07;101206.22;4992924;28;20038;-67
2022/07/14 03:32:30;;;;;;;1.35;0.60;;;;;;;15.83;91.20;101195.81;4990990;28;20172;-67
2022/07/14 03:34:55;;;;;;;5.05;0.63;;;;;;;15.77;91.64;101199.28;5009113;28;20136;-67
2022/07/14 03:37:21;;;;;;;3.80;0.60;;;;;;;15.73;92.01;101191.09;5025313;22;20095;-64
2022/07/14 03:39:53;;;;;;;1.52;0.77;;;;;;;15.73;92.20;101195.75;4995692;28;20045;-64
2022/07/14 03:42:18;;;;;;;3.60;0.70;;;;;;;15.90;92.10;101198.59;5012551;28;20440;-64
2022/07/14 03:44:49;;;;;;;1.73;0.60;;;;;;;16.02;91.00;101200.22;5003953;28;20080;-63
2022/07/14 03:47:15;;;;;;;2.47;0.57;;;;;;;16.04;91.27;101201.44;5005766;28;21335;-63
2022/07/14 03:49:42;;;;;;;5.20;0.80;;;;;;;15.82;92.30;101198.91;5004418;28;20026;-63
2022/07/14 03:52:09;;;;;;;2.97;0.60;;;;;;;15.72;91.64;101205.81;5003881;28;20042;-63
2022/07/14 03:54:37;;;;;;;1.40;0.77;;;;;;;15.84;92.30;101202.81;4994073;28;20042;-64
2022/07/14 03:57:04;;;;;;;1.25;0.70;;;;;;;15.91;91.99;101213.72;4990525;28;20034;-65
2022/07/14 03:59:31;;;;;;;1.27;0.57;;;;;;;16.04;91.76;101223.16;4987537;28;20201;-63
2022/07/14 04:01:57;;;;;;;2.13;0.55;;;;;;;15.94;91.81;101223.84;4990277;28;20073;-64
2022/07/14 04:04:23;;;;;;;2.40;0.60;;;;;;;15.94;92.11;101221.13;4988203;28;20038;-63
2022/07/14 04:06:49;;;;;;;1.52;0.65;;;;;;;15.87;92.79;101223.78;4988824;28;20530;-64
2022/07/14 04:09:15;;;;;;;2.78;0.70;;;;;;;16.07;92.41;101221.59;4993356;28;20044;-64
2022/07/14 04:11:45;;;;;;;1.65;0.70;;;;;;;15.97;92.56;101223.09;5001059;28;20126;-64
2022/07/14 04:14:12;;;;;;;2.78;0.88;;;;;;;16.11;92.33;101227.84;4999669;28;20038;-64
2022/07/14 04:16:39;;;;;;;2.13;0.88;;;;;;;16.19;92.45;101232.97;5009862;28;20496;-65
2022/07/14 04:19:06;;;;;;;1.40;0.52;;;;;;;16.12;91.72;101230.19;4998339;28;20112;-65
2022/07/14 04:21:32;;;;;;;0.63;0.60;;;;;;;16.20;92.09;101226.34;4998704;28;20148;-63
2022/07/14 04:23:58;;;;;;;1.75;0.60;;;;;;;16.15;92.09;101226.72;4995497;28;20236;-64
2022/07/14 04:26:24;;;;;;;0.80;0.55;;;;;;;16.12;92.45;101227.47;4979531;28;20105;-66
2022/07/14 04:28:51;;;;;;;0.95;0.50;;;;;;;16.09;93.17;101220.09;5001208;28;20404;-64
2022/07/14 04:31:16;;;;;;;3.92;0.73;;;;;;;16.15;92.89;101223.22;4987795;28;20022;-63
2022/07/14 04:33:43;;;;;;;0.93;0.63;;;;;;;16.33;92.53;101235.00;5005684;28;20041;-64
2022/07/14 04:36:09;;;;;;;4.45;0.47;;;;;;;16.52;91.83;101234.75;5002288;28;20504;-64
2022/07/14 04:38:35;;;;;;;2.13;0.68;;;;;;;16.71;91.30;101236.38;5018275;28;20408;-64
2022/07/14 04:41:01;;;;;;;3.63;0.52;;;;;;;16.63;91.54;101224.69;4987958;28;20481;-64
2022/07/14 04:43:28;;;;;;;2.28;0.63;;;;;;;16.81;90.67;101238.38;4998556;28;20049;-64
2022/07/14 04:45:58;;;;;;;2.10;0.77;;;;;;;16.78;89.37;101229.03;5007688;28;20037;-69
2022/07/14 04:48:24;;;;;;;2.92;0.50;;;;;;;16.80;90.65;101237.59;5006378;28;20041;-64
2022/07/14 04:53:36;;;;;;;0.82;0.68;;;;;;;16.84;90.34;101243.06;4990237;28;20440;-64
2022/07/14 04:56:21;;;;;;;1.15;0.90;;;;;;;16.91;90.54;101243.09;4998102;28;20049;-66
2022/07/14 04:59:00;;;;;;;1.33;0.70;;;;;;;16.90;89.39;101244.25;4997181;28;20418;-67
2022/07/14 05:01:47;;;;;;;1.55;0.60;;;;;;;17.06;88.54;101250.94;4978323;28;20042;-66
2022/07/14 05:04:13;;;;;;;4.38;0.70;;;;;;;16.99;88.30;101242.72;4983123;28;20069;-67
2022/07/14 05:06:40;;;;;;;1.88;0.63;;;;;;;16.70;89.10;101249.22;4960993;28;20034;-63
2022/07/14 05:09:06;;;;;;;4.43;0.93;;;;;;;16.72;89.05;101240.69;4960354;28;20501;-63
2022/07/14 05:11:33;;;;;;;1.02;0.50;;;;;;;16.73;89.78;101253.91;4961657;28;20038;-65
2022/07/14 05:13:59;;;;;;;2.83;0.68;;;;;;;16.96;90.04;101259.03;4984919;28;20038;-65
2022/07/14 05:16:28;;;;;;;0.75;0.65;;;;;;;17.19;88.56;101258.75;4970754;28;20038;-64
2022/07/14 05:18:54;;;;;;;1.98;0.70;;;;;;;17.82;88.26;101259.69;4972686;28;20053;-67
2022/07/14 05:21:20;;;;;;;0.50;0.40;;;;;;;18.43;85.67;101263.16;4983467;28;20062;-64
2022/07/14 05:23:46;;;;;;;3.35;0.70;;;;;;;19.13;81.88;101259.41;4967835;28;20525;-66
2022/07/14 05:26:13;;;;;;;3.22;0.93;;;;;;;19.84;78.54;101262.53;4968092;28;20084;-70
2022/07/14 05:28:40;;;;;;;2.65;0.80;;;;;;;20.44;74.57;101276.47;4963777;28;20045;-65
2022/07/14 05:31:06;;;;;;;4.32;0.98;;;;;;;20.98;72.47;101271.97;4980156;28;20038;-65
2022/07/14 05:33:38;;;;;;;1.63;0.98;;;;;;;21.45;70.53;101270.94;4987405;28;20030;-66
2022/07/14 05:36:05;;;;;;;2.33;0.70;;;;;;;21.73;69.09;101269.75;4967202;28;20042;-63
2022/07/14 05:38:32;;;;;;;1.10;0.45;;;;;;;22.00;68.28;101270.53;4965728;28;20113;-66
2022/07/14 05:41:01;;;;;;;1.92;0.63;;;;;;;22.21;67.09;101270.16;4989009;28;20069;-64
2022/07/14 05:43:28;;;;;;;2.35;0.80;;;;;;;22.34;66.34;101268.34;5012481;28;20030;-68
2022/07/14 05:45:54;;;;;;;3.15;0.70;;;;;;;22.39;66.48;101273.38;5006470;28;20027;-63
2022/07/14 05:48:20;;;;;;;2.90;0.73;;;;;;;22.51;65.53;101272.78;5001122;28;20694;-63
2022/07/14 05:50:46;;;;;;;2.22;0.85;;;;;;;22.59;65.41;101267.94;5007664;28;20029;-66
2022/07/14 05:53:13;;;;;;;7.18;0.70;;;;;;;22.69;64.97;101272.44;4983975;28;20037;-64
2022/07/14 05:55:38;;;;;;;1.50;0.60;;;;;;;22.63;63.95;101279.66;5004072;28;20982;-67
2022/07/14 05:58:04;;;;;;;1.33;0.60;;;;;;;22.80;63.90;101271.03;5000242;28;20026;-64
2022/07/14 06:00:31;;;;;;;2.20;0.57;;;;;;;22.67;62.45;101269.34;4973671;28;20389;-65
2022/07/14 06:02:57;;;;;;;3.33;0.57;;;;;;;22.95;60.62;101269.56;4971592;28;20044;-65
2022/07/14 06:05:23;;;;;;;0.63;0.30;;;;;;;23.19;59.12;101265.50;4988743;28;20420;-63
2022/07/14 06:07:49;;;;;;;3.45;0.40;;;;;;;23.44;58.56;101264.97;4993911;28;20351;-64
2022/07/14 06:10:16;;;;;;;4.05;0.50;;;;;;;23.52;59.07;101268.38;4998820;28;20049;-65
2022/07/14 06:12:44;;;;;;;2.25;0.40;;;;;;;23.56;58.36;101264.31;4989266;28;20030;-63
2022/07/14 06:15:10;;;;;;;5.57;0.60;;;;;;;23.60;57.02;101269.72;5003954;28;20121;-63
2022/07/14 06:17:36;;;;;;;4.93;0.70;;;;;;;23.15;58.68;101278.56;4997425;28;20336;-64
2022/07/14 06:20:07;;;;;;;4.47;0.70;;;;;;;22.88;59.48;101266.94;5004155;28;20034;-65
2022/07/14 06:22:54;;;;;;;5.75;1.00;;;;;;;22.64;60.08;101265.47;5019507;28;20060;-64
2022/07/14 06:25:20;;;;;;;3.95;0.70;;;;;;;22.33;62.34;101266.81;4969422;28;20074;-63
2022/07/14 06:27:46;;;;;;;3.45;0.70;;;;;;;22.39;62.32;101267.88;4967261;28;20070;-64
2022/07/14 06:30:12;;;;;;;4.53;0.82;;;;;;;22.49;63.23;101263.41;4965383;28;20640;-67
2022/07/14 06:32:40;;;;;;;1.85;0.90;;;;;;;22.68;62.41;101273.66;4965907;28;20027;-63
2022/07/14 06:35:09;;;;;;;3.90;0.88;;;;;;;22.91;60.76;101268.09;5033266;22;20058;-65
2022/07/14 06:37:35;;;;;;;4.28;0.68;;;;;;;22.75;60.35;101265.25;5035956;28;20112;-65
2022/07/14 06:40:06;;;;;;;4.60;0.80;;;;;;;22.45;61.12;101264.22;5026307;28;20126;-67
2022/07/14 06:42:35;;;;;;;3.15;0.80;;;;;;;22.47;62.60;101258.34;5011065;28;20084;-65
2022/07/14 06:45:12;;;;;;;3.05;0.77;;;;;;;22.68;62.98;101262.66;5027478;28;20088;-65
2022/07/14 06:47:38;;;;;;;0.68;0.35;;;;;;;22.95;59.41;101253.09;5012493;28;20037;-65
2022/07/14 06:50:05;;;;;;;3.42;0.45;;;;;;;22.98;59.45;101249.47;5013151;28;20024;-65
2022/07/14 06:52:31;;;;;;;3.10;0.68;;;;;;;22.98;58.21;101246.72;5012043;28;20049;-65
2022/07/14 06:55:00;;;;;;;1.95;0.40;;;;;;;22.91;57.93;101246.88;4993449;28;20042;-65
2022/07/14 06:57:26;;;;;;;2.33;0.52;;;;;;;22.84;58.28;101247.00;4993037;28;20038;-65
2022/07/14 06:59:52;;;;;;;0.52;0.32;;;;;;;22.95;58.75;101241.31;5001237;28;20124;-65
2022/07/14 07:02:21;;;;;;;2.88;0.45;;;;;;;23.13;59.48;101252.72;5013099;28;20036;-65
2022/07/14 07:06:43;;;;;;;1.00;0.50;;;;;;;22.82;58.83;101252.16;5012879;28;20059;-65
2022/07/14 07:07:36;;;;;;;1.30;0.50;;;;;;;23.49;55.95;101244.47;5012210;28;20046;-65
2022/07/14 07:10:03;;;;;;;2.63;0.50;;;;;;;23.73;54.52;101234.84;5012341;28;20107;-65
2022/07/14 07:12:28;;;;;;;1.80;0.70;;;;;;;23.53;54.30;101240.44;5012571;28;20502;-65
2022/07/14 07:14:54;;;;;;;2.17;0.30;;;;;;;23.31;54.52;101242.09;5012567;28;20136;-65
2022/07/14 07:17:20;;;;;;;4.60;0.50;;;;;;;23.08;54.99;101251.22;5011941;28;20100;-65
2022/07/14 07:19:45;;;;;;;1.25;0.32;;;;;;;23.05;56.46;101234.81;5012143;28;20082;-65
2022/07/14 07:22:11;;;;;;;2.53;0.20;;;;;;;23.43;54.08;101237.91;5012475;28;20096;-65
2022/07/14 07:24:37;;;;;;;0.15;0.10;;;;;;;23.70;53.50;101230.19;5011871;28;20088;-65
2022/07/14 07:27:03;;;;;;;1.42;0.30;;;;;;;23.95;51.51;101216.59;5012080;28;20049;-65
2022/07/14 07:29:29;;;;;;;1.45;0.50;;;;;;;24.11;52.31;101214.63;5011934;28;20034;-65
2022/07/14 07:31:54;;;;;;;4.95;0.30;;;;;;;23.99;50.39;101215.31;5012460;28;20029;-65
2022/07/14 07:34:20;;;;;;;1.23;0.52;;;;;;;24.14;52.90;101216.50;5011569;28;20129;-65
2022/07/14 07:36:45;;;;;;;3.83;0.47;;;;;;;24.03;51.40;101220.75;5012054;28;20109;-65
2022/07/14 07:39:11;;;;;;;1.27;0.30;;;;;;;24.06;51.74;101214.38;5011434;28;20037;-65
2022/07/14 07:41:37;;;;;;;6.35;0.40;;;;;;;24.29;50.58;101211.41;5012066;28;20037;-65
2022/07/14 07:44:03;;;;;;;4.65;0.28;;;;;;;24.34;50.38;101212.84;5010178;28;20087;-65
2022/07/14 07:46:28;;;;;;;2.85;0.35;;;;;;;24.40;50.18;101217.38;5012134;28;20022;-65
2022/07/14 07:48:54;;;;;;;3.95;0.35;;;;;;;24.50;50.26;101221.84;5011452;28;20041;-65
2022/07/14 07:51:19;;;;;;;2.90;0.30;;;;;;;24.78;50.76;101214.75;5012084;28;20528;-65
2022/07/14 07:53:45;;;;;;;3.85;0.40;;;;;;;24.94;48.73;101207.19;5011313;28;20022;-65
2022/07/14 07:56:10;;;;;;;0.52;0.20;;;;;;;24.91;49.76;101199.78;5012093;28;20125;-65
2022/07/14 07:58:36;;;;;;;0.40;0.20;;;;;;;25.07;49.61;101209.19;5011689;28;20164;-65
2022/07/14 08:01:02;;;;;;;5.00;0.30;;;;;;;25.17;49.30;101203.34;5011816;28;20025;-65
2022/07/14 08:03:28;;;;;;;0.35;0.20;;;;;;;25.22;47.76;101199.28;5011250;28;20552;-65
2022/07/14 08:05:54;;;;;;;0.77;0.10;;;;;;;25.39;48.53;101203.44;5011629;28;20030;-65
2022/07/14 08:08:20;;;;;;;1.20;0.30;;;;;;;25.48;48.25;101203.56;5010788;28;20383;-65
2022/07/14 08:10:46;;;;;;;1.40;0.30;;;;;;;25.43;48.41;101201.38;5011706;28;20447;-65
2022/07/14 08:13:12;;;;;;;0.43;0.30;;;;;;;25.44;48.86;101194.63;5010951;28;20029;-65
2022/07/14 08:15:37;;;;;;;1.23;0.28;;;;;;;25.48;48.74;101193.31;5011573;28;20072;-65
2022/07/14 08:18:03;;;;;;;2.65;0.30;;;;;;;25.31;49.95;101194.63;5010680;28;20026;-65
2022/07/14 08:20:29;;;;;;;3.42;0.20;;;;;;;25.13;49.21;101188.88;5011019;28;20154;-65
2022/07/14 08:22:55;;;;;;;0.20;0.10;;;;;;;24.93;48.31;101194.59;5011350;28;20177;-65
2022/07/14 08:25:22;;;;;;;1.30;0.10;;;;;;;24.52;48.78;101191.88;5011902;28;20030;-65
2022/07/14 08:27:48;;;;;;;0.20;0.20;;;;;;;24.26;49.05;101184.72;5010599;28;20439;-65
2022/07/14 08:30:13;;;;;;;0.52;0.22;;;;;;;24.39;51.60;101188.28;5011002;28;20113;-65
2022/07/14 08:32:46;;;;;;;0.40;0.20;;;;;;;24.73;51.12;101180.25;5011269;28;20030;-65
2022/07/14 08:35:14;;;;;;;0.25;0.05;;;;;;;25.03;48.75;101181.72;5011007;28;20034;-65
2022/07/14 08:37:40;;;;;;;0.28;0.17;;;;;;;24.91;48.98;101186.00;5010358;28;20049;-65
2022/07/14 08:40:09;;;;;;;0.60;0.30;;;;;;;24.86;48.44;101177.50;5011038;28;20022;-66
2022/07/14 08:42:36;;;;;;;0.52;0.30;;;;;;;24.83;48.55;101167.38;5011284;28;20490;-65
2022/07/14 08:45:07;;;;;;;2.47;0.20;;;;;;;25.11;48.27;101173.97;5009652;28;20682;-65
2022/07/14 08:47:34;;;;;;;0.10;0.10;;;;;;;25.20;48.46;101165.84;5010188;28;20483;-65
2022/07/14 08:50:01;;;;;;;3.03;0.20;;;;;;;25.30;47.92;101168.25;5011112;28;20030;-65
2022/07/14 08:52:27;;;;;;;0.10;0.10;;;;;;;25.45;47.65;101168.59;5010011;28;20030;-65
2022/07/14 08:54:53;;;;;;;1.92;0.55;;;;;;;25.30;48.27;101167.50;5011085;28;20628;-65
2022/07/14 08:57:18;;;;;;;0.80;0.43;;;;;;;25.19;48.13;101156.00;5013485;28;20022;-65
2022/07/14 08:59:44;;;;;;;3.60;0.47;;;;;;;25.07;49.12;101162.31;5014564;28;20045;-66
2022/07/14 09:02:10;;;;;;;4.38;0.22;;;;;;;25.10;48.54;101148.41;5014916;28;20046;-65
2022/07/14 09:04:36;;;;;;;1.48;0.20;;;;;;;25.10;48.14;101162.22;5014970;28;20606;-65
2022/07/14 09:07:01;;;;;;;2.88;0.75;;;;;;;24.84;48.87;101164.16;5014406;28;20120;-65
2022/07/14 09:09:34;;;;;;;3.50;0.20;;;;;;;24.36;48.72;101156.13;5014751;28;20037;-65
2022/07/14 09:12:06;;;;;;;2.15;0.22;;;;;;;24.25;49.26;101152.13;5014884;28;20049;-65
2022/07/14 09:17:22;;;;;;;1.02;0.17;;;;;;;24.49;47.53;101151.41;5014504;28;20052;-65
2022/07/14 09:20:11;;;;;;;0.30;0.20;;;;;;;24.47;48.73;101159.34;5014387;28;20481;-65
2022/07/14 09:22:39;;;;;;;1.70;0.20;;;;;;;24.68;48.15;101163.47;5014343;28;20037;-65
2022/07/14 09:25:11;;;;;;;1.15;0.25;;;;;;;24.80;47.44;101149.72;5014435;28;20048;-65
2022/07/14 09:27:38;;;;;;;2.30;0.20;;;;;;;24.92;49.10;101153.69;5014438;28;20077;-65
2022/07/14 09:30:05;;;;;;;2.78;0.40;;;;;;;24.97;48.39;101150.41;5014155;28;20057;-65
2022/07/14 09:32:52;;;;;;;2.40;0.20;;;;;;;24.96;47.46;101157.91;5014169;28;20045;-65
2022/07/14 09:35:25;;;;;;;0.43;0.17;;;;;;;25.09;45.64;101146.09;5014134;28;20550;-65
2022/07/14 09:37:52;;;;;;;0.10;0.08;;;;;;;25.37;46.20;101145.97;5013557;28;20477;-65
2022/07/14 09:40:25;;;;;;;1.10;0.13;;;;;;;25.64;45.42;101145.50;5013501;28;20033;-64
2022/07/14 09:42:58;;;;;;;0.00;0.00;;;;;;;25.86;43.85;101130.50;5014233;28;20029;-65
2022/07/14 09:45:29;;;;;;;0.52;0.20;;;;;;;26.04;44.04;101131.84;5011410;28;20030;-64
2022/07/14 09:48:07;;;;;;;3.30;0.30;;;;;;;26.31;43.81;101126.56;5012013;28;20045;-64
2022/07/14 09:50:54;;;;;;;0.40;0.30;;;;;;;26.63;44.53;101129.69;5013578;28;20065;-65
2022/07/14 09:53:29;;;;;;;1.10;0.43;;;;;;;26.92;43.22;101128.59;5014100;28;20042;-64
2022/07/14 09:56:00;;;;;;;0.10;0.10;;;;;;;27.20;41.47;101124.69;5012648;28;20483;-65
2022/07/14 09:58:33;;;;;;;0.32;0.20;;;;;;;26.75;42.61;101128.06;5012756;28;20103;-65
2022/07/14 10:01:08;;;;;;;0.05;0.05;;;;;;;27.12;40.95;101131.75;5029364;28;20052;-65
2022/07/14 10:03:35;;;;;;;0.10;0.10;;;;;;;27.09;42.41;101138.97;5014072;28;20453;-65
2022/07/14 10:06:02;;;;;;;2.13;0.25;;;;;;;27.18;40.66;101138.97;5028608;28;20054;-65
2022/07/14 10:08:31;;;;;;;1.02;0.20;;;;;;;27.41;41.17;101124.59;5011412;28;20589;-65
2022/07/14 10:11:01;;;;;;;0.52;0.08;;;;;;;27.43;40.60;101122.16;5013385;28;20049;-65
2022/07/14 10:13:27;;;;;;;2.65;0.20;;;;;;;27.18;42.12;101133.44;5013492;28;20056;-65
2022/07/14 10:15:54;;;;;;;0.52;0.10;;;;;;;27.14;41.21;101132.06;5012753;28;20037;-65
2022/07/14 10:18:21;;;;;;;0.88;0.10;;;;;;;27.05;42.26;101124.50;5012635;28;20056;-65
2022/07/14 10:20:49;;;;;;;1.80;0.10;;;;;;;26.87;41.61;101124.41;5013419;28;20037;-64
2022/07/14 10:23:17;;;;;;;0.55;0.10;;;;;;;26.99;41.50;101126.31;5012608;28;20105;-65
2022/07/14 10:25:47;;;;;;;0.77;0.10;;;;;;;26.90;40.82;101131.81;5013258;28;20406;-65
2022/07/14 10:28:15;;;;;;;0.68;0.10;;;;;;;26.97;41.79;101114.16;5012369;28;20095;-65
2022/07/14 10:31:13;;;;;;;0.50;0.10;;;;;;;26.90;41.68;101114.47;5013009;28;20221;-65
2022/07/14 10:34:13;;;;;;;0.80;0.10;;;;;;;27.03;40.95;101109.56;5000670;28;20077;-65
2022/07/14 10:36:38;;;;;;;1.33;0.30;;;;;;;26.95;40.64;101100.78;5012946;28;20398;-65
2022/07/14 10:39:28;;;;;;;0.10;0.10;;;;;;;26.94;42.38;101102.03;5012036;28;20021;-65
2022/07/14 10:42:14;;;;;;;0.20;0.13;;;;;;;26.78;41.76;101100.28;5010029;28;20401;-64
2022/07/14 10:44:45;;;;;;;0.15;0.03;;;;;;;26.73;41.30;101100.88;5010676;28;20116;-65
2022/07/14 10:47:14;;;;;;;;;;;;;;;26.54;40.97;101110.28;5013023;28;20040;-65
2022/07/14 10:50:09;;;;;;;2.22;0.20;;;;;;;26.68;40.70;101100.66;5011752;28;19917;-65
2022/07/14 10:53:03;;;;;;;0.95;0.20;;;;;;;26.49;40.40;101102.56;5012850;28;20037;-65
2022/07/14 10:55:29;;;;;;;4.32;0.40;;;;;;;26.41;41.42;101106.81;5010324;28;20041;-65
2022/07/14 10:58:04;;;;;;;0.90;0.20;;;;;;;26.38;39.96;101096.69;5011410;28;20026;-65
2022/07/14 11:00:42;;;;;;;0.98;0.30;;;;;;;26.15;42.16;101097.13;5012822;28;20042;-65
2022/07/14 11:03:28;;;;;;;0.73;0.10;;;;;;;26.27;41.82;101085.25;5012166;28;20542;-65
2022/07/14 11:06:07;;;;;;;0.43;0.20;;;;;;;26.45;43.08;101090.09;5012497;28;20109;-65
2022/07/14 11:08:36;;;;;;;2.88;0.22;;;;;;;26.64;42.54;101091.72;5011117;28;20072;-65
2022/07/14 11:11:08;;;;;;;1.02;0.28;;;;;;;26.83;43.22;101081.56;5012531;28;20073;-65
2022/07/14 11:13:33;;;;;;;;;;;;;;;26.87;42.30;101076.66;5012919;28;20045;-65
2022/07/14 11:16:03;;;;;;;0.32;0.15;;;;;;;26.99;42.16;101084.06;5012494;28;19921;-64
2022/07/14 11:18:29;;;;;;;0.80;0.20;;;;;;;26.73;42.72;101091.81;5010182;28;20034;-65
2022/07/14 11:21:17;;;;;;;1.38;0.10;;;;;;;26.47;43.65;101099.50;5012587;28;20034;-65
2022/07/14 11:23:51;;;;;;;0.90;0.25;;;;;;;26.37;43.48;101108.94;5012305;28;20513;-65
2022/07/14 11:26:36;;;;;;;1.45;0.13;;;;;;;26.12;43.68;101103.56;5011630;28;20399;-65
2022/07/14 11:29:07;;;;;;;0.88;0.20;;;;;;;26.08;43.84;101099.38;5011219;28;20038;-65
2022/07/14 11:31:52;;;;;;;0.67;0.23;;;;;;;25.91;44.19;101085.00;5012392;28;20042;-65
2022/07/14 11:37:19;;;;;;;0.50;0.17;;;;;;;25.98;44.54;101090.25;4992160;28;20034;-64
2022/07/14 11:39:44;;;;;;;;;;;;;;;26.08;45.26;101080.84;4992622;28;20065;-65
2022/07/14 11:42:16;;;;;;;0.15;0.15;;;;;;;26.21;45.54;101089.81;4992227;28;19956;-65
2022/07/14 11:44:42;;;;;;;0.95;0.10;;;;;;;26.33;45.61;101088.19;4995508;28;20026;-65